createdAt,value
2022-07-30T00:08:26.416Z,18.44
2022-07-30T00:18:28.280Z,18.44
2022-07-30T00:28:30.202Z,18.40
2022-07-30T00:38:32.386Z,18.34
2022-07-30T00:48:34.305Z,18.27
2022-07-30T00:58:36.221Z,18.19
2022-07-30T01:08:38.273Z,18.12
2022-07-30T01:19:01.111Z,18.06
2022-07-30T01:29:03.365Z,18.01
2022-07-30T01:39:05.842Z,17.93
2022-07-30T01:49:10.664Z,17.86
2022-07-30T01:59:16.596Z,17.75
2022-07-30T02:09:27.032Z,17.67
2022-07-30T02:19:36.992Z,20.11
2022-07-30T02:29:46.333Z,21.09
2022-07-30T02:39:51.836Z,18.90
2022-07-30T02:49:55.419Z,20.33
2022-07-30T02:59:59.370Z,21.77
2022-07-30T03:10:03.025Z,18.66
2022-07-30T03:20:09.997Z,19.36
2022-07-30T03:30:12.785Z,21.63
2022-07-30T03:40:16.058Z,19.67
2022-07-30T03:50:17.998Z,19.74
2022-07-30T04:00:21.356Z,21.77
2022-07-30T04:10:25.332Z,22.56
2022-07-30T04:20:41.274Z,22.87
2022-07-30T04:30:43.437Z,22.33
2022-07-30T04:40:46.038Z,21.49
2022-07-30T04:50:50.257Z,23.00
2022-07-30T05:00:55.508Z,23.50
2022-07-30T05:11:01.734Z,24.21
2022-07-30T05:21:04.504Z,23.22
2022-07-30T05:31:12.478Z,20.84
2022-07-30T05:41:19.055Z,22.08
2022-07-30T05:51:47.605Z,23.66
2022-07-30T06:01:53.178Z,20.93
2022-07-30T06:12:00.156Z,21.50
2022-07-30T06:22:06.698Z,23.23
2022-07-30T06:32:14.006Z,20.91
2022-07-30T06:42:16.265Z,20.91
2022-07-30T06:52:38.044Z,22.72
2022-07-30T07:02:42.727Z,22.03
2022-07-30T07:12:47.570Z,21.89
2022-07-30T07:22:52.057Z,22.92
2022-07-30T07:32:55.395Z,22.78
2022-07-30T07:42:58.795Z,22.26
2022-07-30T07:53:01.304Z,23.91
2022-07-30T08:03:03.719Z,23.93
2022-07-30T08:13:06.322Z,22.47
2022-07-30T08:23:28.265Z,24.23
2022-07-30T08:33:30.303Z,24.32
2022-07-30T08:43:35.945Z,22.80
2022-07-30T08:53:39.194Z,24.04
2022-07-30T09:03:44.168Z,24.54
2022-07-30T09:13:47.205Z,24.84
2022-07-30T09:24:03.773Z,25.57
2022-07-30T09:34:40.157Z,24.11
2022-07-30T09:44:42.342Z,23.48
2022-07-30T09:54:52.896Z,25.43
2022-07-30T10:05:14.403Z,26.37
2022-07-30T10:15:20.768Z,24.42
2022-07-30T10:25:28.107Z,23.20
2022-07-30T10:35:49.616Z,24.46
2022-07-30T10:46:36.634Z,26.13
2022-07-30T10:56:38.839Z,23.65
2022-07-30T11:06:40.913Z,23.78
2022-07-30T11:16:58.639Z,25.44
2022-07-30T11:27:01.875Z,26.16
2022-07-30T11:37:18.336Z,24.42
2022-07-30T11:47:28.296Z,24.97
2022-07-30T11:57:43.858Z,25.12
2022-07-30T12:07:46.030Z,23.34
2022-07-30T12:17:51.370Z,24.64
2022-07-30T12:27:59.505Z,24.35
2022-07-30T12:38:07.148Z,24.29
2022-07-30T12:48:12.859Z,25.93
2022-07-30T12:58:17.676Z,25.14
2022-07-30T13:08:20.014Z,24.34
2022-07-30T13:18:24.279Z,24.80
2022-07-30T13:28:26.555Z,25.40
2022-07-30T13:38:28.993Z,26.57
2022-07-30T13:48:32.632Z,24.93
2022-07-30T13:58:36.217Z,26.42
2022-07-30T14:08:39.182Z,27.16
2022-07-30T14:18:42.829Z,25.58
2022-07-30T14:28:44.861Z,26.36
2022-07-30T14:38:46.817Z,25.83
2022-07-30T14:48:50.141Z,24.64
2022-07-30T14:58:53.441Z,25.18
2022-07-30T15:08:55.630Z,23.93
2022-07-30T15:18:59.010Z,24.68
2022-07-30T15:29:01.042Z,24.42
2022-07-30T15:39:02.867Z,23.95
2022-07-30T15:49:05.111Z,25.39
2022-07-30T15:59:07.409Z,24.48
2022-07-30T16:09:09.497Z,22.19
2022-07-30T16:19:12.274Z,23.29
2022-07-30T16:29:14.409Z,24.81
2022-07-30T16:39:16.754Z,24.61
2022-07-30T16:49:19.689Z,24.32
2022-07-30T16:59:22.657Z,23.96
2022-07-30T17:09:24.873Z,25.27
2022-07-30T17:19:27.295Z,23.18
2022-07-30T17:29:29.876Z,23.67
2022-07-30T17:40:26.335Z,25.22
2022-07-30T17:49:55.136Z,23.22
2022-07-30T17:59:57.111Z,23.60
2022-07-30T18:09:59.439Z,25.37
2022-07-30T18:20:01.542Z,24.31
2022-07-30T18:30:04.341Z,21.89
2022-07-30T18:40:07.668Z,22.90
2022-07-30T18:50:11.726Z,24.86
2022-07-30T19:00:34.342Z,25.34
2022-07-30T19:10:37.588Z,22.90
2022-07-30T19:20:39.750Z,23.35
2022-07-30T19:30:41.856Z,25.08
2022-07-30T19:40:43.962Z,25.67
2022-07-30T19:50:46.060Z,24.44
2022-07-30T20:00:49.772Z,24.05
2022-07-30T20:10:52.155Z,25.43
2022-07-30T20:20:55.120Z,25.35
2022-07-30T20:31:00.629Z,25.49
2022-07-30T20:41:03.687Z,25.75
2022-07-30T20:51:13.259Z,25.90
2022-07-30T21:01:17.521Z,24.12
2022-07-30T21:11:20.217Z,23.43
2022-07-30T21:21:28.688Z,24.63
2022-07-30T21:32:01.963Z,22.12
2022-07-30T21:42:03.812Z,22.40
2022-07-30T21:52:08.671Z,24.23
2022-07-30T22:02:15.886Z,24.89
2022-07-30T22:12:33.077Z,23.56
2022-07-30T22:22:37.732Z,22.84
2022-07-30T22:32:40.263Z,24.15
2022-07-30T22:42:49.525Z,24.63
2022-07-30T22:53:01.320Z,24.93
2022-07-30T23:03:14.816Z,23.42
2022-07-30T23:13:18.931Z,22.84
2022-07-30T23:23:20.864Z,24.49
2022-07-30T23:33:22.768Z,25.17
2022-07-30T23:43:24.643Z,23.79
2022-07-30T23:53:26.785Z,23.21
